KLNN/LNN METAR and TAF weather

Enter ICAO airport designator
Station Type Date Time Source
KLNN METAR 2019/02/22 22:35 UTC NOAA

KLNN 222235Z AUTO 04005KT 10SM CLR 00/M06 A3041 RMK AO1 T00001061


Station Type Date Time Source
KLNN Decoded METAR 2019/02/22 22:35 UTC NOAA

Willoughby, OH, United States (KLNN) 41-41N 081-23W
Feb 22, 2019 - 05:35 PM EST / 2019.02.22 2235 UTC
Wind: from the NE (040 degrees) at 6 MPH (5 KT):0
Visibility: 10 mile(s):0
Sky conditions: clear
Temperature: 32.0 F (0.0 C)
Windchill: 26 F (-3 C):1
Dew Point: 21.0 F (-6.1 C)
Relative Humidity: 63%
Pressure (altimeter): 30.41 in. Hg (1029 hPa)
ob: KLNN 222235Z AUTO 04005KT 10SM CLR 00/M06 A3041 RMK AO1 T00001061
cycle: 22

Station Type Date Time Source
KLNN TAF UTC NOAA

Error!


Example: see airport list